Terminal Aerodrome Forecast
Issued by NWS

Home | Current Version | Previous Version | Text Only | Print | Product List | Glossary On
Versions: 1 2 3 4 5 6 7 8 9 10 11 12 13 14 15 16 17 18 19 20 21 22 23 24 25 26 27 28 29 30 31
000
FTUS43 KDMX 231127
TAFOTM
TAF
KOTM 231127Z 2312/2412 27009KT P6SM OVC011
     FM231600 30010KT P6SM SCT020
     FM232300 33006KT P6SM SCT150
     FM240400 02005KT P6SM SCT011 SCT100
     FM240900 07009KT P6SM VCSH OVC011=

USA.gov is the U.S. government's official web portal to all federal, state and local government web resources and services.